Warrenton, Texas
Current Conditions -  °F | °C
As of 10:30 PM on Thursday 18 Dec 2014 (Local Time) from K3T5 Reporting Station
Thunderstorm Thunderstorm  
Wind Chill: 58°   Ceiling: 400
Heat Index: 58°   Visibility: 2.5mi
Dew Point: 58°   Wind: 0mph
Humidity: 98%   Direction: NA
Pressure: 30.05"   Gusts: NA
Location:  30.0108°N, 96.7162°W
Report Text: K3T5 190430Z AUTO 00000KT 2 1/2SM +TSRA OVC004 15/14 A3005 RMK AO2 LTG DSNT ALQS P0007 T01470144
Loading
Personal Weather Stations






























Interactive Weather Map New forecast layout! Learn more

10-Day Weather Forecast

Advertisements
Track Severe Weather on mobile